Seaexpressii — HO4619 — position and weather

sailwx.info

Track history (hours):
 
Tides and Currents Weather Stations Pressure Air Temp Water Temp Dewpoint Dewpoint Depression Visibility Wind Speed Wind Dir Waves Ship Positions

Seaexpressii

Last reported at 2015-May-26 22:30 UTC. Time now 2015-May-27 01:39 UTC.
Position N 26°05' W 079°25'.

Length 37 m; draft 2.1 m.

Type: Ship (hazmat cat A). MMSI: 356449000.

Date/timePositionNaut miles runAvg speedWind from/ knotsBaromVisibWave heightAir tempDewpointWater temp
2015-May-26 22:30N 26°05' W 079°25'9 9.1
2015-May-26 21:33N 26°05' W 079°35'9 9.0
2015-May-26 20:33N 26°05' W 079°45'9 9.0
2015-May-26 19:33N 26°05' W 079°55'9 8.8
2015-May-26 18:33N 26°05' W 080°04'4 3.5
2015-May-26 17:33N 26°04' W 080°08'0 0.0
2015-May-26 16:33N 26°04' W 080°08'0 0.0
2015-May-26 15:33N 26°04' W 080°08'0 0.0
2015-May-26 14:33N 26°04' W 080°08'0 0.0
2015-May-26 13:33N 26°04' W 080°08'0 0.0
2015-May-26 12:33N 26°04' W 080°08'0 0.0
2015-May-26 11:33N 26°04' W 080°08'0 0.0
2015-May-26 10:33N 26°04' W 080°08'0 0.0
2015-May-26 09:33N 26°04' W 080°08'0 0.0
2015-May-26 08:33N 26°04' W 080°08'0 0.0
2015-May-26 07:33N 26°04' W 080°08'0 0.0
2015-May-26 06:33N 26°04' W 080°08'0 0.0
2015-May-26 05:33N 26°04' W 080°08'0 0.0
2015-May-26 04:33N 26°04' W 080°08'0 0.0
2015-May-26 03:33N 26°04' W 080°08'0 0.0
2015-May-26 02:33N 26°04' W 080°08'0 0.0
2015-May-26 01:33N 26°04' W 080°08'0 0.0
2015-May-26 00:33N 26°04' W 080°08'0 0.0
2015-May-25 23:33N 26°04' W 080°08'0 0.0
2015-May-25 22:33N 26°04' W 080°08'0 0.0
2015-May-25 21:33N 26°04' W 080°08'0 0.0
2015-May-25 20:33N 26°04' W 080°08'0 0.0
2015-May-25 19:33N 26°04' W 080°08'0 0.0
2015-May-25 18:33N 26°04' W 080°08'0 0.0
2015-May-25 17:33N 26°04' W 080°08'0 0.0
2015-May-25 16:33N 26°04' W 080°08'0 0.0
2015-May-25 15:33N 26°04' W 080°08'0 0.0
2015-May-25 14:33N 26°04' W 080°08'0 0.0
2015-May-25 13:33N 26°04' W 080°08'0 0.0
2015-May-25 12:33N 26°04' W 080°08'0 0.0
2015-May-25 11:33N 26°04' W 080°08'6 6.0
2015-May-25 10:33N 26°04' W 080°01'10 9.9
2015-May-25 09:33N 26°01' W 079°51'10 9.7
2015-May-25 08:33N 25°59' W 079°40'10 9.5
2015-May-25 07:33N 25°56' W 079°30'  
2015-May-22 20:29N 26°05' W 079°31'9 9.9
2015-May-22 19:33N 26°05' W 079°41'10 9.7
2015-May-22 18:33N 26°05' W 079°52'1010.0
2015-May-22 17:33N 26°05' W 080°03'4 4.4
2015-May-22 16:33N 26°04' W 080°08'0 0.0
2015-May-22 15:33N 26°04' W 080°08'0 0.0
2015-May-22 14:33N 26°04' W 080°08'0 0.0
2015-May-22 13:33N 26°04' W 080°08'0 0.0
2015-May-22 12:33N 26°04' W 080°08'0 0.0
2015-May-22 11:33N 26°04' W 080°08'5 5.3
2015-May-22 10:33N 26°04' W 080°02'9 9.5
2015-May-22 09:33N 25°59' W 079°53'1010.2
2015-May-22 08:33N 25°54' W 079°43'1210.5
2015-May-22 07:26N 25°49' W 079°31'12 0.4
2015-May-21 05:27N 25°51' W 079°44'8 7.9
2015-May-21 04:29N 25°56' W 079°51'8 8.3
2015-May-21 03:33N 26°00' W 079°57'9 9.0
2015-May-21 02:33N 26°06' W 080°06'3 2.7
2015-May-21 01:33N 26°04' W 080°08'0 0.0
2015-May-21 00:33N 26°04' W 080°08'0 0.0
2015-May-20 23:33N 26°04' W 080°08'0 0.0
2015-May-20 22:33N 26°04' W 080°08'0 0.0
2015-May-20 21:33N 26°04' W 080°08'0 0.0
2015-May-20 20:33N 26°04' W 080°08'0 0.0
2015-May-20 19:33N 26°04' W 080°08'0 0.0
2015-May-20 18:33N 26°04' W 080°08'0 0.1
2015-May-20 17:33N 26°04' W 080°08'7 6.6
2015-May-20 16:33N 26°04' W 080°01'1110.8
2015-May-20 15:33N 26°01' W 079°49'1110.7
2015-May-20 14:33N 25°57' W 079°38'10 9.7
2015-May-20 13:29N 25°55' W 079°27'  
2015-May-17 02:33N 25°59' W 079°46'7 7.4
2015-May-17 01:33N 26°02' W 079°54'7 7.5
2015-May-17 00:33N 26°05' W 080°02'5 5.4
2015-May-16 23:33N 26°04' W 080°08'0 0.1
2015-May-16 22:33N 26°04' W 080°08'  
Track history (hours):
 
Tides and Currents Weather Stations Pressure Air Temp Water Temp Dewpoint Dewpoint Depression Visibility Wind Speed Wind Dir Waves Ship Positions

Seaexpressii

Last reported at 2015-May-26 22:30 UTC. Time now 2015-May-27 01:39 UTC.
Position N 26°05' W 079°25'.

Length 37 m; draft 2.1 m.

Type: Ship (hazmat cat A). MMSI: 356449000.

Date/timePositionNaut miles runAvg speedWind from/ knotsBaromVisibWave heightAir tempDewpointWater temp
2015-May-26 22:30N 26°05' W 079°25'9 9.1
2015-May-26 21:33N 26°05' W 079°35'9 9.0
2015-May-26 20:33N 26°05' W 079°45'9 9.0
2015-May-26 19:33N 26°05' W 079°55'9 8.8
2015-May-26 18:33N 26°05' W 080°04'4 3.5
2015-May-26 17:33N 26°04' W 080°08'0 0.0
2015-May-26 16:33N 26°04' W 080°08'0 0.0
2015-May-26 15:33N 26°04' W 080°08'0 0.0
2015-May-26 14:33N 26°04' W 080°08'0 0.0
2015-May-26 13:33N 26°04' W 080°08'0 0.0
2015-May-26 12:33N 26°04' W 080°08'0 0.0
2015-May-26 11:33N 26°04' W 080°08'0 0.0
2015-May-26 10:33N 26°04' W 080°08'0 0.0
2015-May-26 09:33N 26°04' W 080°08'0 0.0
2015-May-26 08:33N 26°04' W 080°08'0 0.0
2015-May-26 07:33N 26°04' W 080°08'0 0.0
2015-May-26 06:33N 26°04' W 080°08'0 0.0
2015-May-26 05:33N 26°04' W 080°08'0 0.0
2015-May-26 04:33N 26°04' W 080°08'0 0.0
2015-May-26 03:33N 26°04' W 080°08'0 0.0
2015-May-26 02:33N 26°04' W 080°08'0 0.0
2015-May-26 01:33N 26°04' W 080°08'0 0.0
2015-May-26 00:33N 26°04' W 080°08'0 0.0
2015-May-25 23:33N 26°04' W 080°08'0 0.0
2015-May-25 22:33N 26°04' W 080°08'0 0.0
2015-May-25 21:33N 26°04' W 080°08'0 0.0
2015-May-25 20:33N 26°04' W 080°08'0 0.0
2015-May-25 19:33N 26°04' W 080°08'0 0.0
2015-May-25 18:33N 26°04' W 080°08'0 0.0
2015-May-25 17:33N 26°04' W 080°08'0 0.0
2015-May-25 16:33N 26°04' W 080°08'0 0.0
2015-May-25 15:33N 26°04' W 080°08'0 0.0
2015-May-25 14:33N 26°04' W 080°08'0 0.0
2015-May-25 13:33N 26°04' W 080°08'0 0.0
2015-May-25 12:33N 26°04' W 080°08'0 0.0
2015-May-25 11:33N 26°04' W 080°08'6 6.0
2015-May-25 10:33N 26°04' W 080°01'10 9.9
2015-May-25 09:33N 26°01' W 079°51'10 9.7
2015-May-25 08:33N 25°59' W 079°40'10 9.5
2015-May-25 07:33N 25°56' W 079°30'  
2015-May-22 20:29N 26°05' W 079°31'9 9.9
2015-May-22 19:33N 26°05' W 079°41'10 9.7
2015-May-22 18:33N 26°05' W 079°52'1010.0
2015-May-22 17:33N 26°05' W 080°03'4 4.4
2015-May-22 16:33N 26°04' W 080°08'0 0.0
2015-May-22 15:33N 26°04' W 080°08'0 0.0
2015-May-22 14:33N 26°04' W 080°08'0 0.0
2015-May-22 13:33N 26°04' W 080°08'0 0.0
2015-May-22 12:33N 26°04' W 080°08'0 0.0
2015-May-22 11:33N 26°04' W 080°08'5 5.3
2015-May-22 10:33N 26°04' W 080°02'9 9.5
2015-May-22 09:33N 25°59' W 079°53'1010.2
2015-May-22 08:33N 25°54' W 079°43'1210.5
2015-May-22 07:26N 25°49' W 079°31'12 0.4
2015-May-21 05:27N 25°51' W 079°44'8 7.9
2015-May-21 04:29N 25°56' W 079°51'8 8.3
2015-May-21 03:33N 26°00' W 079°57'9 9.0
2015-May-21 02:33N 26°06' W 080°06'3 2.7
2015-May-21 01:33N 26°04' W 080°08'0 0.0
2015-May-21 00:33N 26°04' W 080°08'0 0.0
2015-May-20 23:33N 26°04' W 080°08'0 0.0
2015-May-20 22:33N 26°04' W 080°08'0 0.0
2015-May-20 21:33N 26°04' W 080°08'0 0.0
2015-May-20 20:33N 26°04' W 080°08'0 0.0
2015-May-20 19:33N 26°04' W 080°08'0 0.0
2015-May-20 18:33N 26°04' W 080°08'0 0.1
2015-May-20 17:33N 26°04' W 080°08'7 6.6
2015-May-20 16:33N 26°04' W 080°01'1110.8
2015-May-20 15:33N 26°01' W 079°49'1110.7
2015-May-20 14:33N 25°57' W 079°38'10 9.7
2015-May-20 13:29N 25°55' W 079°27'  
2015-May-17 02:33N 25°59' W 079°46'7 7.4
2015-May-17 01:33N 26°02' W 079°54'7 7.5
2015-May-17 00:33N 26°05' W 080°02'5 5.4
2015-May-16 23:33N 26°04' W 080°08'0 0.1
2015-May-16 22:33N 26°04' W 080°08'  

Dump ship's entire track history